sensor_id;sensor_type;location;lat;lon;timestamp;temperature;humidity
12233;DHT22;6179;51.748;8.728;2023-08-08T00:05:59;13.90;98.30
12233;DHT22;6179;51.748;8.728;2023-08-08T00:12:00;14.10;98.30
12233;DHT22;6179;51.748;8.728;2023-08-08T00:18:00;14.10;98.30
12233;DHT22;6179;51.748;8.728;2023-08-08T00:24:01;14.20;98.30
12233;DHT22;6179;51.748;8.728;2023-08-08T00:30:02;14.20;98.30
12233;DHT22;6179;51.748;8.728;2023-08-08T00:36:02;14.30;98.30
12233;DHT22;6179;51.748;8.728;2023-08-08T00:42:03;14.30;98.30
12233;DHT22;6179;51.748;8.728;2023-08-08T00:48:04;14.40;98.30
12233;DHT22;6179;51.748;8.728;2023-08-08T00:54:05;14.40;98.30
12233;DHT22;6179;51.748;8.728;2023-08-08T01:00:07;14.50;98.30
12233;DHT22;6179;51.748;8.728;2023-08-08T01:12:29;15.00;98.30
12233;DHT22;6179;51.748;8.728;2023-08-08T01:18:31;15.10;98.30
12233;DHT22;6179;51.748;8.728;2023-08-08T01:24:32;14.70;98.30
12233;DHT22;6179;51.748;8.728;2023-08-08T01:30:37;14.70;98.30
12233;DHT22;6179;51.748;8.728;2023-08-08T01:36:59;14.80;98.30
12233;DHT22;6179;51.748;8.728;2023-08-08T01:43:00;14.70;98.30
12233;DHT22;6179;51.748;8.728;2023-08-08T01:49:00;14.60;98.30
12233;DHT22;6179;51.748;8.728;2023-08-08T01:55:01;14.60;98.30
12233;DHT22;6179;51.748;8.728;2023-08-08T02:01:02;14.50;98.30
12233;DHT22;6179;51.748;8.728;2023-08-08T02:07:03;14.10;98.30
12233;DHT22;6179;51.748;8.728;2023-08-08T02:13:04;14.00;98.30
12233;DHT22;6179;51.748;8.728;2023-08-08T02:19:05;13.70;98.30
12233;DHT22;6179;51.748;8.728;2023-08-08T02:25:05;13.80;98.30
12233;DHT22;6179;51.748;8.728;2023-08-08T02:31:06;13.60;98.30
12233;DHT22;6179;51.748;8.728;2023-08-08T02:37:07;13.60;98.30
12233;DHT22;6179;51.748;8.728;2023-08-08T02:43:07;13.90;98.30
12233;DHT22;6179;51.748;8.728;2023-08-08T02:49:09;13.70;98.30
12233;DHT22;6179;51.748;8.728;2023-08-08T02:55:10;13.40;98.30
12233;DHT22;6179;51.748;8.728;2023-08-08T03:01:11;13.30;98.30
12233;DHT22;6179;51.748;8.728;2023-08-08T03:07:13;13.50;98.30
12233;DHT22;6179;51.748;8.728;2023-08-08T03:13:14;13.60;98.30
12233;DHT22;6179;51.748;8.728;2023-08-08T03:19:15;13.60;98.30
12233;DHT22;6179;51.748;8.728;2023-08-08T03:25:15;13.20;98.30
12233;DHT22;6179;51.748;8.728;2023-08-08T03:31:17;13.20;98.30
12233;DHT22;6179;51.748;8.728;2023-08-08T03:37:18;13.10;98.30
12233;DHT22;6179;51.748;8.728;2023-08-08T03:43:18;13.10;98.30
12233;DHT22;6179;51.748;8.728;2023-08-08T03:49:19;12.80;98.30
12233;DHT22;6179;51.748;8.728;2023-08-08T03:55:19;12.80;98.30
12233;DHT22;6179;51.748;8.728;2023-08-08T04:01:20;13.00;98.30
12233;DHT22;6179;51.748;8.728;2023-08-08T04:07:21;13.10;98.30
12233;DHT22;6179;51.748;8.728;2023-08-08T04:13:21;13.10;98.30
12233;DHT22;6179;51.748;8.728;2023-08-08T04:19:22;13.20;98.30
12233;DHT22;6179;51.748;8.728;2023-08-08T04:25:23;13.20;98.30
12233;DHT22;6179;51.748;8.728;2023-08-08T04:31:24;13.30;98.30
12233;DHT22;6179;51.748;8.728;2023-08-08T04:37:26;13.50;98.30
12233;DHT22;6179;51.748;8.728;2023-08-08T04:43:26;13.70;98.30
12233;DHT22;6179;51.748;8.728;2023-08-08T04:49:28;13.70;98.30
12233;DHT22;6179;51.748;8.728;2023-08-08T04:55:29;13.90;98.30
12233;DHT22;6179;51.748;8.728;2023-08-08T05:01:29;14.00;98.30
12233;DHT22;6179;51.748;8.728;2023-08-08T05:07:30;14.00;98.30
12233;DHT22;6179;51.748;8.728;2023-08-08T05:13:31;13.90;98.30
12233;DHT22;6179;51.748;8.728;2023-08-08T05:19:31;14.00;98.30
12233;DHT22;6179;51.748;8.728;2023-08-08T05:25:32;14.20;98.30
12233;DHT22;6179;51.748;8.728;2023-08-08T05:31:32;14.30;98.30
12233;DHT22;6179;51.748;8.728;2023-08-08T05:37:33;14.30;98.30
12233;DHT22;6179;51.748;8.728;2023-08-08T05:43:34;14.50;98.30
12233;DHT22;6179;51.748;8.728;2023-08-08T05:49:36;14.70;98.30
12233;DHT22;6179;51.748;8.728;2023-08-08T05:55:36;14.40;98.30
12233;DHT22;6179;51.748;8.728;2023-08-08T06:01:37;14.50;98.30
12233;DHT22;6179;51.748;8.728;2023-08-08T06:07:38;15.00;98.30
12233;DHT22;6179;51.748;8.728;2023-08-08T06:13:39;14.70;98.30
12233;DHT22;6179;51.748;8.728;2023-08-08T06:19:40;14.90;98.30
12233;DHT22;6179;51.748;8.728;2023-08-08T06:25:40;14.80;98.30
12233;DHT22;6179;51.748;8.728;2023-08-08T06:31:41;14.80;98.30
12233;DHT22;6179;51.748;8.728;2023-08-08T06:37:42;14.70;98.30
12233;DHT22;6179;51.748;8.728;2023-08-08T06:43:44;15.20;98.30
12233;DHT22;6179;51.748;8.728;2023-08-08T06:49:44;15.20;98.30
12233;DHT22;6179;51.748;8.728;2023-08-08T06:55:45;15.20;98.30
12233;DHT22;6179;51.748;8.728;2023-08-08T07:01:45;15.50;98.30
12233;DHT22;6179;51.748;8.728;2023-08-08T07:07:46;15.80;98.30
12233;DHT22;6179;51.748;8.728;2023-08-08T07:13:46;16.00;98.30
12233;DHT22;6179;51.748;8.728;2023-08-08T07:19:47;16.00;98.30
12233;DHT22;6179;51.748;8.728;2023-08-08T07:25:48;16.30;98.30
12233;DHT22;6179;51.748;8.728;2023-08-08T07:31:48;16.00;98.30
12233;DHT22;6179;51.748;8.728;2023-08-08T07:37:49;16.00;98.30
12233;DHT22;6179;51.748;8.728;2023-08-08T07:43:50;16.40;98.30
12233;DHT22;6179;51.748;8.728;2023-08-08T07:49:50;16.50;98.30
12233;DHT22;6179;51.748;8.728;2023-08-08T07:55:51;16.30;98.30
12233;DHT22;6179;51.748;8.728;2023-08-08T08:01:52;16.20;98.30
12233;DHT22;6179;51.748;8.728;2023-08-08T08:07:52;16.30;98.30
12233;DHT22;6179;51.748;8.728;2023-08-08T08:13:53;16.50;98.30
12233;DHT22;6179;51.748;8.728;2023-08-08T08:19:54;16.30;98.30
12233;DHT22;6179;51.748;8.728;2023-08-08T08:25:55;16.40;98.30
12233;DHT22;6179;51.748;8.728;2023-08-08T08:31:56;16.60;98.30
12233;DHT22;6179;51.748;8.728;2023-08-08T08:37:56;16.70;98.30
12233;DHT22;6179;51.748;8.728;2023-08-08T08:43:57;17.00;98.30
12233;DHT22;6179;51.748;8.728;2023-08-08T08:49:59;17.40;98.30
12233;DHT22;6179;51.748;8.728;2023-08-08T08:56:01;17.90;97.10
12233;DHT22;6179;51.748;8.728;2023-08-08T09:02:03;17.90;95.00
12233;DHT22;6179;51.748;8.728;2023-08-08T09:08:04;17.60;95.70
12233;DHT22;6179;51.748;8.728;2023-08-08T09:14:16;17.80;95.60
12233;DHT22;6179;51.748;8.728;2023-08-08T09:20:17;17.70;95.30
12233;DHT22;6179;51.748;8.728;2023-08-08T09:26:18;18.00;94.80
12233;DHT22;6179;51.748;8.728;2023-08-08T09:32:19;18.00;92.80
12233;DHT22;6179;51.748;8.728;2023-08-08T09:38:19;17.90;92.80
12233;DHT22;6179;51.748;8.728;2023-08-08T09:44:23;17.90;93.00
12233;DHT22;6179;51.748;8.728;2023-08-08T09:50:25;17.40;93.90
12233;DHT22;6179;51.748;8.728;2023-08-08T09:56:26;17.00;94.40
12233;DHT22;6179;51.748;8.728;2023-08-08T10:02:29;17.00;93.70
12233;DHT22;6179;51.748;8.728;2023-08-08T10:08:30;18.00;90.80
12233;DHT22;6179;51.748;8.728;2023-08-08T10:14:34;18.10;87.70
12233;DHT22;6179;51.748;8.728;2023-08-08T10:20:36;18.70;85.20
12233;DHT22;6179;51.748;8.728;2023-08-08T10:26:57;18.20;86.60
12233;DHT22;6179;51.748;8.728;2023-08-08T10:33:01;18.30;87.70
12233;DHT22;6179;51.748;8.728;2023-08-08T10:39:02;18.20;87.00
12233;DHT22;6179;51.748;8.728;2023-08-08T10:45:03;18.00;88.80
12233;DHT22;6179;51.748;8.728;2023-08-08T10:51:05;18.60;89.40
12233;DHT22;6179;51.748;8.728;2023-08-08T10:57:15;18.80;87.70
12233;DHT22;6179;51.748;8.728;2023-08-08T11:03:16;18.80;86.00
12233;DHT22;6179;51.748;8.728;2023-08-08T11:09:17;19.70;86.20
12233;DHT22;6179;51.748;8.728;2023-08-08T11:15:18;19.40;85.10
12233;DHT22;6179;51.748;8.728;2023-08-08T11:21:19;19.40;86.80
12233;DHT22;6179;51.748;8.728;2023-08-08T11:27:19;20.20;84.00
12233;DHT22;6179;51.748;8.728;2023-08-08T11:33:20;20.10;82.00
12233;DHT22;6179;51.748;8.728;2023-08-08T11:39:21;20.10;82.60
12233;DHT22;6179;51.748;8.728;2023-08-08T11:45:21;20.30;81.60
12233;DHT22;6179;51.748;8.728;2023-08-08T11:51:22;20.20;79.70
12233;DHT22;6179;51.748;8.728;2023-08-08T11:57:23;20.30;79.90
12233;DHT22;6179;51.748;8.728;2023-08-08T12:03:25;20.50;80.90
12233;DHT22;6179;51.748;8.728;2023-08-08T12:09:32;20.20;76.40
12233;DHT22;6179;51.748;8.728;2023-08-08T12:15:34;20.00;78.80
12233;DHT22;6179;51.748;8.728;2023-08-08T12:21:37;20.40;80.50
12233;DHT22;6179;51.748;8.728;2023-08-08T12:27:38;20.30;81.80
12233;DHT22;6179;51.748;8.728;2023-08-08T12:33:39;20.20;80.10
12233;DHT22;6179;51.748;8.728;2023-08-08T12:39:39;19.70;83.20
12233;DHT22;6179;51.748;8.728;2023-08-08T12:45:40;19.90;79.70
12233;DHT22;6179;51.748;8.728;2023-08-08T12:51:41;20.10;83.20
12233;DHT22;6179;51.748;8.728;2023-08-08T12:57:42;19.90;82.50
12233;DHT22;6179;51.748;8.728;2023-08-08T13:03:42;19.90;85.10
12233;DHT22;6179;51.748;8.728;2023-08-08T13:09:43;20.10;83.90
12233;DHT22;6179;51.748;8.728;2023-08-08T13:15:43;20.50;80.60
12233;DHT22;6179;51.748;8.728;2023-08-08T13:21:45;20.60;80.10
12233;DHT22;6179;51.748;8.728;2023-08-08T13:27:47;20.70;77.80
12233;DHT22;6179;51.748;8.728;2023-08-08T13:33:48;20.40;80.90
12233;DHT22;6179;51.748;8.728;2023-08-08T13:39:49;20.60;79.10
12233;DHT22;6179;51.748;8.728;2023-08-08T13:45:50;20.70;81.30
12233;DHT22;6179;51.748;8.728;2023-08-08T13:51:50;20.90;82.50
12233;DHT22;6179;51.748;8.728;2023-08-08T13:57:51;20.60;79.90
12233;DHT22;6179;51.748;8.728;2023-08-08T14:03:52;20.70;79.90
12233;DHT22;6179;51.748;8.728;2023-08-08T14:09:52;21.20;76.90
12233;DHT22;6179;51.748;8.728;2023-08-08T14:15:53;20.70;78.80
12233;DHT22;6179;51.748;8.728;2023-08-08T14:21:54;21.10;77.20
12233;DHT22;6179;51.748;8.728;2023-08-08T14:27:54;21.50;76.70
12233;DHT22;6179;51.748;8.728;2023-08-08T14:33:57;21.40;77.60
12233;DHT22;6179;51.748;8.728;2023-08-08T14:39:58;21.40;78.40
12233;DHT22;6179;51.748;8.728;2023-08-08T14:45:58;20.70;79.80
12233;DHT22;6179;51.748;8.728;2023-08-08T14:51:59;21.10;77.00
12233;DHT22;6179;51.748;8.728;2023-08-08T14:58:00;20.70;76.00
12233;DHT22;6179;51.748;8.728;2023-08-08T15:04:01;21.10;77.80
12233;DHT22;6179;51.748;8.728;2023-08-08T15:10:01;20.90;73.90
12233;DHT22;6179;51.748;8.728;2023-08-08T15:16:02;20.10;78.50
12233;DHT22;6179;51.748;8.728;2023-08-08T15:22:04;20.50;79.50
12233;DHT22;6179;51.748;8.728;2023-08-08T15:28:05;21.50;73.70
12233;DHT22;6179;51.748;8.728;2023-08-08T15:34:06;21.10;73.40
12233;DHT22;6179;51.748;8.728;2023-08-08T15:40:07;20.80;73.90
12233;DHT22;6179;51.748;8.728;2023-08-08T15:46:07;20.50;75.00
12233;DHT22;6179;51.748;8.728;2023-08-08T15:52:08;20.20;81.40
12233;DHT22;6179;51.748;8.728;2023-08-08T15:58:09;20.40;82.70
12233;DHT22;6179;51.748;8.728;2023-08-08T16:04:10;20.40;80.90
12233;DHT22;6179;51.748;8.728;2023-08-08T16:10:11;20.00;81.80
12233;DHT22;6179;51.748;8.728;2023-08-08T16:16:11;19.90;80.90
12233;DHT22;6179;51.748;8.728;2023-08-08T16:22:12;20.90;78.60
12233;DHT22;6179;51.748;8.728;2023-08-08T16:28:13;21.60;72.60
12233;DHT22;6179;51.748;8.728;2023-08-08T16:34:13;21.60;72.90
12233;DHT22;6179;51.748;8.728;2023-08-08T16:40:14;21.70;72.80
12233;DHT22;6179;51.748;8.728;2023-08-08T16:46:14;21.70;72.70
12233;DHT22;6179;51.748;8.728;2023-08-08T16:52:16;20.90;74.10
12233;DHT22;6179;51.748;8.728;2023-08-08T16:58:16;20.30;75.70
12233;DHT22;6179;51.748;8.728;2023-08-08T17:04:17;19.90;76.00
12233;DHT22;6179;51.748;8.728;2023-08-08T17:10:18;19.70;78.70
12233;DHT22;6179;51.748;8.728;2023-08-08T17:16:19;19.60;79.60
12233;DHT22;6179;51.748;8.728;2023-08-08T17:22:20;19.60;80.10
12233;DHT22;6179;51.748;8.728;2023-08-08T17:28:21;19.30;79.80
12233;DHT22;6179;51.748;8.728;2023-08-08T17:34:21;19.10;81.50
12233;DHT22;6179;51.748;8.728;2023-08-08T17:40:22;19.30;81.10
12233;DHT22;6179;51.748;8.728;2023-08-08T17:46:22;19.40;79.50
12233;DHT22;6179;51.748;8.728;2023-08-08T17:52:23;19.00;79.90
12233;DHT22;6179;51.748;8.728;2023-08-08T17:58:24;18.60;80.20
12233;DHT22;6179;51.748;8.728;2023-08-08T18:04:25;18.70;81.10
12233;DHT22;6179;51.748;8.728;2023-08-08T18:10:26;18.50;79.90
12233;DHT22;6179;51.748;8.728;2023-08-08T18:16:27;18.30;80.50
12233;DHT22;6179;51.748;8.728;2023-08-08T18:22:27;18.30;81.10
12233;DHT22;6179;51.748;8.728;2023-08-08T18:28:29;18.30;81.30
12233;DHT22;6179;51.748;8.728;2023-08-08T18:34:29;18.50;80.90
12233;DHT22;6179;51.748;8.728;2023-08-08T18:40:30;18.40;82.40
12233;DHT22;6179;51.748;8.728;2023-08-08T18:46:31;18.30;82.30
12233;DHT22;6179;51.748;8.728;2023-08-08T18:52:33;18.10;82.30
12233;DHT22;6179;51.748;8.728;2023-08-08T18:58:33;18.10;82.20
12233;DHT22;6179;51.748;8.728;2023-08-08T19:04:34;17.90;82.70
12233;DHT22;6179;51.748;8.728;2023-08-08T19:10:35;17.90;83.10
12233;DHT22;6179;51.748;8.728;2023-08-08T19:29:49;17.30;85.00
12233;DHT22;6179;51.748;8.728;2023-08-08T19:35:49;17.30;85.20
12233;DHT22;6179;51.748;8.728;2023-08-08T19:41:50;17.30;86.10
12233;DHT22;6179;51.748;8.728;2023-08-08T19:47:52;17.20;85.60
12233;DHT22;6179;51.748;8.728;2023-08-08T19:53:52;17.30;86.20
12233;DHT22;6179;51.748;8.728;2023-08-08T19:59:53;17.10;86.00
12233;DHT22;6179;51.748;8.728;2023-08-08T20:05:53;17.00;85.90
12233;DHT22;6179;51.748;8.728;2023-08-08T20:11:54;16.90;86.10
12233;DHT22;6179;51.748;8.728;2023-08-08T20:17:55;16.70;87.40
12233;DHT22;6179;51.748;8.728;2023-08-08T20:23:55;16.70;89.80
12233;DHT22;6179;51.748;8.728;2023-08-08T20:29:56;16.70;90.60
12233;DHT22;6179;51.748;8.728;2023-08-08T20:35:57;16.80;90.70
12233;DHT22;6179;51.748;8.728;2023-08-08T20:41:59;17.00;90.20
12233;DHT22;6179;51.748;8.728;2023-08-08T20:48:00;16.70;90.20
12233;DHT22;6179;51.748;8.728;2023-08-08T20:54:01;17.20;89.50
12233;DHT22;6179;51.748;8.728;2023-08-08T21:00:02;17.30;89.40
12233;DHT22;6179;51.748;8.728;2023-08-08T21:06:03;17.30;89.30
12233;DHT22;6179;51.748;8.728;2023-08-08T21:12:04;17.00;90.40
12233;DHT22;6179;51.748;8.728;2023-08-08T21:18:05;17.00;90.70
12233;DHT22;6179;51.748;8.728;2023-08-08T21:24:06;16.80;91.50
12233;DHT22;6179;51.748;8.728;2023-08-08T21:30:07;16.60;93.50
12233;DHT22;6179;51.748;8.728;2023-08-08T21:36:08;16.30;96.50
12233;DHT22;6179;51.748;8.728;2023-08-08T21:42:09;16.40;97.20
12233;DHT22;6179;51.748;8.728;2023-08-08T21:48:10;16.20;97.80
12233;DHT22;6179;51.748;8.728;2023-08-08T21:54:11;16.20;98.30
12233;DHT22;6179;51.748;8.728;2023-08-08T22:00:12;15.90;98.30
12233;DHT22;6179;51.748;8.728;2023-08-08T22:06:14;15.90;98.30
12233;DHT22;6179;51.748;8.728;2023-08-08T22:12:17;15.90;98.30
12233;DHT22;6179;51.748;8.728;2023-08-08T22:18:19;16.00;98.30
12233;DHT22;6179;51.748;8.728;2023-08-08T22:24:20;15.70;98.30
12233;DHT22;6179;51.748;8.728;2023-08-08T22:30:21;15.80;98.30
12233;DHT22;6179;51.748;8.728;2023-08-08T22:36:22;15.40;98.30
12233;DHT22;6179;51.748;8.728;2023-08-08T22:42:22;15.70;98.30
12233;DHT22;6179;51.748;8.728;2023-08-08T22:48:24;15.80;98.30
12233;DHT22;6179;51.748;8.728;2023-08-08T22:54:25;15.40;98.30
12233;DHT22;6179;51.748;8.728;2023-08-08T23:00:26;15.50;98.30
12233;DHT22;6179;51.748;8.728;2023-08-08T23:06:26;15.30;98.30
12233;DHT22;6179;51.748;8.728;2023-08-08T23:12:27;15.20;98.30
12233;DHT22;6179;51.748;8.728;2023-08-08T23:18:28;15.20;98.30
12233;DHT22;6179;51.748;8.728;2023-08-08T23:24:28;15.20;98.30
12233;DHT22;6179;51.748;8.728;2023-08-08T23:30:29;15.00;98.30
12233;DHT22;6179;51.748;8.728;2023-08-08T23:36:31;15.10;98.30
12233;DHT22;6179;51.748;8.728;2023-08-08T23:42:31;14.70;98.30
12233;DHT22;6179;51.748;8.728;2023-08-08T23:48:33;14.70;98.30
12233;DHT22;6179;51.748;8.728;2023-08-08T23:54:33;14.20;98.30
